createdAt,value
2017-12-11T00:00:56.172Z,6.60
2017-12-11T00:03:23.781Z,6.60
2017-12-11T00:05:52.159Z,6.60
2017-12-11T00:08:20.541Z,6.60
2017-12-11T00:10:49.020Z,6.60
2017-12-11T00:13:17.389Z,6.60
2017-12-11T00:15:45.772Z,6.60
2017-12-11T00:18:14.132Z,6.60
2017-12-11T00:20:41.750Z,6.60
2017-12-11T00:23:09.336Z,6.60
2017-12-11T00:25:36.965Z,6.60
2017-12-11T00:28:04.556Z,6.60
2017-12-11T00:30:32.141Z,6.70
2017-12-11T00:32:59.766Z,6.70
2017-12-11T00:35:27.357Z,6.70
2017-12-11T00:37:54.978Z,6.70
2017-12-11T00:40:22.562Z,6.70
2017-12-11T00:42:50.194Z,6.70
2017-12-11T00:45:17.788Z,6.70
2017-12-11T00:47:46.165Z,6.70
2017-12-11T00:50:13.773Z,6.70
2017-12-11T00:52:41.367Z,6.70
2017-12-11T00:55:08.984Z,6.70
2017-12-11T00:57:37.341Z,6.70
2017-12-11T01:00:04.971Z,6.70
2017-12-11T01:02:32.559Z,6.70
2017-12-11T01:05:00.165Z,6.70
2017-12-11T01:07:27.805Z,6.70
2017-12-11T01:09:56.182Z,6.70
2017-12-11T01:12:24.573Z,6.70
2017-12-11T01:14:52.162Z,6.70
2017-12-11T01:17:19.780Z,6.70
2017-12-11T01:19:48.144Z,6.70
2017-12-11T01:22:16.576Z,6.70
2017-12-11T01:24:44.189Z,6.70
2017-12-11T01:27:12.538Z,6.70
2017-12-11T01:29:40.148Z,6.70
2017-12-11T01:32:07.745Z,6.70
2017-12-11T01:34:35.373Z,6.70
2017-12-11T01:37:03.063Z,6.70
2017-12-11T01:39:30.651Z,6.70
2017-12-11T01:41:58.288Z,6.70
2017-12-11T01:44:25.903Z,6.70
2017-12-11T01:46:54.294Z,6.60
2017-12-11T01:49:21.893Z,6.60
2017-12-11T01:51:49.477Z,6.60
2017-12-11T01:54:17.102Z,6.60
2017-12-11T01:56:44.695Z,6.60
2017-12-11T01:59:12.317Z,6.60
2017-12-11T02:01:39.909Z,6.50
2017-12-11T02:04:07.492Z,6.50
2017-12-11T02:06:35.129Z,6.50
2017-12-11T02:09:02.736Z,6.50
2017-12-11T02:11:30.369Z,6.50
2017-12-11T02:13:57.964Z,6.50
2017-12-11T02:16:25.545Z,6.50
2017-12-11T02:18:53.175Z,6.40
2017-12-11T02:21:21.540Z,6.40
2017-12-11T02:23:49.936Z,6.40
2017-12-11T02:26:18.292Z,6.30
2017-12-11T02:28:45.888Z,6.30
2017-12-11T02:31:13.514Z,6.40
2017-12-11T02:33:41.879Z,6.30
2017-12-11T02:36:09.529Z,6.30
2017-12-11T02:38:37.119Z,6.30
2017-12-11T02:41:05.493Z,6.40
2017-12-11T02:43:33.128Z,6.30
2017-12-11T02:46:00.733Z,6.30
2017-12-11T02:48:29.133Z,6.30
2017-12-11T02:50:56.729Z,6.20
2017-12-11T02:53:24.340Z,6.30
2017-12-11T02:55:51.955Z,6.20
2017-12-11T02:58:21.058Z,6.20
2017-12-11T03:00:50.194Z,6.20
2017-12-11T03:03:17.909Z,6.20
2017-12-11T03:05:45.511Z,6.20
2017-12-11T03:08:13.896Z,6.10
2017-12-11T03:10:41.496Z,6.10
2017-12-11T03:13:09.137Z,6.10
2017-12-11T03:15:36.737Z,6.10
2017-12-11T03:18:05.107Z,6.10
2017-12-11T03:20:32.720Z,6.00
2017-12-11T03:23:00.329Z,6.10
2017-12-11T03:25:27.950Z,6.10
2017-12-11T03:27:55.563Z,6.10
2017-12-11T03:30:24.676Z,6.10
2017-12-11T03:32:53.070Z,6.20
2017-12-11T03:35:20.672Z,6.10
2017-12-11T03:37:48.306Z,6.20
2017-12-11T03:40:15.912Z,6.20
2017-12-11T03:42:43.512Z,6.20
2017-12-11T03:45:11.167Z,6.20
2017-12-11T03:47:39.541Z,6.20
2017-12-11T03:50:07.929Z,6.20
2017-12-11T03:52:36.288Z,6.30
2017-12-11T03:55:03.886Z,6.20
2017-12-11T03:57:31.504Z,6.30
2017-12-11T03:59:59.088Z,6.20
2017-12-11T04:02:27.536Z,6.20
2017-12-11T04:04:55.889Z,6.30
2017-12-11T04:07:23.532Z,6.20
2017-12-11T04:09:51.153Z,6.20
2017-12-11T04:12:19.516Z,6.30
2017-12-11T04:14:47.134Z,6.20
2017-12-11T04:17:14.725Z,6.30
2017-12-11T04:19:42.322Z,6.30
2017-12-11T04:22:10.708Z,6.20
2017-12-11T04:24:39.057Z,6.20
2017-12-11T04:27:06.678Z,6.10
2017-12-11T04:29:34.273Z,6.20
2017-12-11T04:32:01.854Z,6.20
2017-12-11T04:34:30.233Z,6.10
2017-12-11T04:36:58.588Z,6.10
2017-12-11T04:39:26.272Z,6.10
2017-12-11T04:41:54.676Z,6.10
2017-12-11T04:44:22.264Z,6.10
2017-12-11T04:46:49.872Z,6.10
2017-12-11T04:49:18.225Z,6.10
2017-12-11T04:51:45.852Z,6.00
2017-12-11T04:54:13.474Z,6.10
2017-12-11T04:56:41.833Z,6.10
2017-12-11T04:59:09.444Z,6.00
2017-12-11T05:01:37.032Z,6.10
2017-12-11T05:04:04.669Z,6.10
2017-12-11T05:06:32.262Z,6.00
2017-12-11T05:08:59.874Z,6.00
2017-12-11T05:11:27.500Z,6.00
2017-12-11T05:13:55.947Z,6.00
2017-12-11T05:16:23.580Z,5.90
2017-12-11T05:18:51.168Z,5.90
2017-12-11T05:21:18.773Z,5.90
2017-12-11T05:23:47.159Z,5.80
2017-12-11T05:26:15.525Z,5.90
2017-12-11T05:28:43.188Z,5.80
2017-12-11T05:31:10.778Z,5.80
2017-12-11T05:33:38.369Z,5.80
2017-12-11T05:36:05.992Z,5.70
2017-12-11T05:38:33.589Z,5.70
2017-12-11T05:41:01.232Z,5.70
2017-12-11T05:43:28.828Z,5.70
2017-12-11T05:45:56.436Z,5.70
2017-12-11T05:48:24.053Z,5.70
2017-12-11T05:50:51.736Z,5.70
2017-12-11T05:53:19.355Z,5.80
2017-12-11T05:55:46.967Z,5.80
2017-12-11T05:58:15.323Z,5.70
2017-12-11T06:00:42.938Z,5.70
2017-12-11T06:03:10.535Z,5.70
2017-12-11T06:05:38.167Z,5.70
2017-12-11T06:08:05.766Z,5.70
2017-12-11T06:10:33.369Z,5.60
2017-12-11T06:13:00.990Z,5.60
2017-12-11T06:15:28.584Z,5.50
2017-12-11T06:17:56.210Z,5.40
2017-12-11T06:20:23.813Z,5.40
2017-12-11T06:22:51.416Z,5.40
2017-12-11T06:25:19.825Z,5.60
2017-12-11T06:27:48.177Z,5.70
2017-12-11T06:30:15.818Z,5.60
2017-12-11T06:32:43.410Z,5.70
2017-12-11T06:35:11.012Z,5.80
2017-12-11T06:37:38.630Z,5.80
2017-12-11T06:40:06.224Z,5.80
2017-12-11T06:42:34.626Z,5.90
2017-12-11T06:45:02.216Z,5.80
2017-12-11T06:47:29.808Z,5.90
2017-12-11T06:49:58.197Z,5.90
2017-12-11T06:52:26.550Z,6.00
2017-12-11T06:54:54.177Z,5.90
2017-12-11T06:57:21.770Z,6.00
2017-12-11T06:59:50.877Z,5.90
2017-12-11T07:02:19.275Z,6.00
2017-12-11T07:04:47.624Z,6.00
2017-12-11T07:07:15.253Z,6.00
2017-12-11T07:09:42.870Z,6.00
2017-12-11T07:12:11.224Z,6.10
2017-12-11T07:14:38.840Z,6.00
2017-12-11T07:17:06.439Z,6.00
2017-12-11T07:19:34.825Z,6.10
2017-12-11T07:22:02.412Z,6.00
2017-12-11T07:24:30.784Z,6.10
2017-12-11T07:26:59.181Z,6.10
2017-12-11T07:29:26.781Z,6.00
2017-12-11T07:31:54.408Z,6.10
2017-12-11T07:34:21.993Z,6.10
2017-12-11T07:36:49.590Z,6.10
2017-12-11T07:39:17.206Z,6.10
2017-12-11T07:41:44.801Z,6.10
2017-12-11T07:44:13.193Z,6.10
2017-12-11T07:46:41.567Z,6.10
2017-12-11T07:49:09.161Z,6.10
2017-12-11T07:51:36.779Z,6.10
2017-12-11T07:54:04.373Z,6.10
2017-12-11T07:56:32.003Z,6.10
2017-12-11T07:58:59.601Z,6.10
2017-12-11T08:01:27.208Z,6.10
2017-12-11T08:03:54.839Z,6.20
2017-12-11T08:06:22.431Z,6.20
2017-12-11T08:08:50.086Z,6.20
2017-12-11T08:11:17.741Z,6.20
2017-12-11T08:13:45.353Z,6.20
2017-12-11T08:16:13.745Z,6.20
2017-12-11T08:18:41.450Z,6.20
2017-12-11T08:21:09.076Z,6.20
2017-12-11T08:23:36.717Z,6.20
2017-12-11T08:26:05.081Z,6.20
2017-12-11T08:28:32.735Z,6.20
2017-12-11T08:31:00.329Z,6.20
2017-12-11T08:33:27.966Z,6.20
2017-12-11T08:35:56.320Z,6.20
2017-12-11T08:38:23.925Z,6.20
2017-12-11T08:40:51.594Z,6.20
2017-12-11T08:43:19.933Z,6.30
2017-12-11T08:45:47.570Z,6.20
2017-12-11T08:48:15.173Z,6.30
2017-12-11T08:50:43.542Z,6.20
2017-12-11T08:53:11.161Z,6.20
2017-12-11T08:55:38.753Z,6.20
2017-12-11T08:58:07.888Z,6.20
2017-12-11T09:00:35.482Z,6.20
2017-12-11T09:03:03.858Z,6.20
2017-12-11T09:05:31.475Z,6.20
2017-12-11T09:07:59.831Z,6.20
2017-12-11T09:10:28.224Z,6.20
2017-12-11T09:12:56.584Z,6.20
2017-12-11T09:15:24.177Z,6.20
2017-12-11T09:17:51.793Z,6.20
2017-12-11T09:20:19.392Z,6.20
2017-12-11T09:22:47.052Z,6.30
2017-12-11T09:25:15.408Z,6.30
2017-12-11T09:27:42.996Z,6.20
2017-12-11T09:30:11.383Z,6.30
2017-12-11T09:32:38.980Z,6.20
2017-12-11T09:35:06.608Z,6.30
2017-12-11T09:37:34.205Z,6.30
2017-12-11T09:40:01.979Z,6.40
2017-12-11T09:42:29.597Z,6.40
2017-12-11T09:44:57.191Z,6.50
2017-12-11T09:47:24.816Z,6.50
2017-12-11T09:49:52.413Z,6.50
2017-12-11T09:52:19.999Z,6.50
2017-12-11T09:54:47.628Z,6.40
2017-12-11T09:57:15.216Z,6.40
2017-12-11T09:59:42.880Z,6.40
2017-12-11T10:02:10.477Z,6.40
2017-12-11T10:04:38.122Z,6.40
2017-12-11T10:07:06.506Z,6.40
2017-12-11T10:09:34.877Z,6.40
2017-12-11T10:12:03.588Z,6.40
2017-12-11T10:14:31.490Z,6.40
2017-12-11T10:16:59.409Z,6.40
2017-12-11T10:19:27.991Z,6.40
2017-12-11T10:21:55.915Z,6.40
2017-12-11T10:24:23.773Z,6.40
2017-12-11T10:26:51.642Z,6.50
2017-12-11T10:29:19.514Z,6.40
2017-12-11T10:31:47.374Z,6.50
2017-12-11T10:34:15.254Z,6.50
2017-12-11T10:36:44.641Z,6.40
2017-12-11T10:39:12.567Z,6.40
2017-12-11T10:41:40.486Z,6.40
2017-12-11T10:44:08.470Z,6.50
2017-12-11T10:46:36.427Z,6.50
2017-12-11T10:49:04.399Z,6.50
2017-12-11T10:51:32.266Z,6.50
2017-12-11T10:54:00.954Z,6.50
2017-12-11T10:56:28.912Z,6.50
2017-12-11T10:58:56.779Z,6.50
2017-12-11T11:01:24.738Z,6.50
2017-12-11T11:03:52.483Z,6.50
2017-12-11T11:06:20.381Z,6.50
2017-12-11T11:08:48.204Z,6.50
2017-12-11T11:11:16.110Z,6.50
2017-12-11T11:13:43.981Z,6.50
2017-12-11T11:16:11.862Z,6.50
2017-12-11T11:18:39.709Z,6.50
2017-12-11T11:21:07.583Z,6.60
2017-12-11T11:23:35.448Z,6.50
2017-12-11T11:26:03.317Z,6.50
2017-12-11T11:28:31.181Z,6.50
2017-12-11T11:30:59.148Z,6.60
2017-12-11T11:33:26.972Z,6.60
2017-12-11T11:35:54.943Z,6.60
2017-12-11T11:38:22.852Z,6.60
2017-12-11T11:40:50.721Z,6.60
2017-12-11T11:43:18.417Z,6.60
2017-12-11T11:45:46.874Z,6.60
2017-12-11T11:48:14.503Z,6.60
2017-12-11T11:50:42.093Z,6.60
2017-12-11T11:53:09.694Z,6.60
2017-12-11T11:55:37.315Z,6.60
2017-12-11T11:58:04.925Z,6.60
2017-12-11T12:00:32.565Z,6.60
2017-12-11T12:03:00.929Z,6.60
2017-12-11T12:05:28.529Z,6.60
2017-12-11T12:07:56.157Z,6.60
2017-12-11T12:10:24.511Z,6.60
2017-12-11T12:12:52.471Z,6.50
2017-12-11T12:15:20.334Z,6.60
2017-12-11T12:17:48.204Z,6.60
2017-12-11T12:20:16.021Z,6.60
2017-12-11T12:22:43.620Z,6.60
2017-12-11T12:25:11.254Z,6.60
2017-12-11T12:27:38.877Z,6.60
2017-12-11T12:30:07.243Z,6.60
2017-12-11T12:32:34.864Z,6.50
2017-12-11T12:35:02.552Z,6.50
2017-12-11T12:37:30.188Z,6.50
2017-12-11T12:39:57.790Z,6.60
2017-12-11T12:42:26.885Z,6.50
2017-12-11T12:44:55.267Z,6.60
2017-12-11T12:47:24.814Z,6.50
2017-12-11T12:49:52.576Z,6.50
2017-12-11T12:52:20.177Z,6.60
2017-12-11T12:54:47.942Z,6.60
2017-12-11T12:57:15.711Z,6.60
2017-12-11T12:59:43.654Z,6.60
2017-12-11T13:02:11.543Z,6.50
2017-12-11T13:04:39.230Z,6.50
2017-12-11T13:07:06.836Z,6.50
2017-12-11T13:09:34.620Z,6.40
2017-12-11T13:12:02.402Z,6.40
2017-12-11T13:14:30.050Z,6.40
2017-12-11T13:16:57.808Z,6.50
2017-12-11T13:19:25.421Z,6.50
2017-12-11T13:21:53.892Z,6.40
2017-12-11T13:24:22.338Z,6.40
2017-12-11T13:26:50.066Z,6.30
2017-12-11T13:29:17.872Z,6.30
2017-12-11T13:31:45.630Z,6.30
2017-12-11T13:34:13.408Z,6.20
2017-12-11T13:36:41.014Z,6.10
2017-12-11T13:39:08.640Z,6.10
2017-12-11T13:41:36.250Z,5.90
2017-12-11T13:44:05.798Z,5.70
2017-12-11T13:46:33.418Z,5.60
2017-12-11T13:49:01.009Z,5.50
2017-12-11T13:51:28.645Z,5.40
2017-12-11T13:53:56.241Z,5.50
2017-12-11T13:56:23.834Z,5.50
2017-12-11T13:58:52.228Z,5.30
2017-12-11T14:01:19.825Z,5.20
2017-12-11T14:03:47.459Z,5.20
2017-12-11T14:06:15.050Z,5.10
2017-12-11T14:08:42.643Z,5.10
2017-12-11T14:11:11.033Z,5.20
2017-12-11T14:13:39.435Z,5.30
2017-12-11T14:16:07.058Z,5.20
2017-12-11T14:18:34.649Z,5.20
2017-12-11T14:21:03.008Z,5.20
2017-12-11T14:23:31.397Z,5.20
2017-12-11T14:25:59.761Z,5.20
2017-12-11T14:28:27.445Z,5.20
2017-12-11T14:30:55.045Z,5.20
2017-12-11T14:33:22.640Z,5.20
2017-12-11T14:35:51.762Z,5.20
2017-12-11T14:38:19.360Z,5.20
2017-12-11T14:40:47.000Z,5.20
2017-12-11T14:43:14.609Z,5.30
2017-12-11T14:45:42.221Z,5.30
2017-12-11T14:48:09.847Z,5.40
2017-12-11T14:50:38.220Z,5.50
2017-12-11T14:53:05.849Z,5.50
2017-12-11T14:55:33.443Z,5.60
2017-12-11T14:58:01.815Z,5.70
2017-12-11T15:00:29.442Z,5.70
2017-12-11T15:02:57.032Z,5.80
2017-12-11T15:05:24.666Z,5.90
2017-12-11T15:07:52.258Z,5.90
2017-12-11T15:10:20.620Z,6.00
2017-12-11T15:12:48.235Z,5.90
2017-12-11T15:15:15.837Z,6.00
2017-12-11T15:17:43.469Z,6.00
2017-12-11T15:20:11.069Z,6.00
2017-12-11T15:22:38.722Z,6.00
2017-12-11T15:25:06.325Z,6.00
2017-12-11T15:27:33.935Z,6.00
2017-12-11T15:30:01.566Z,5.90
2017-12-11T15:32:29.166Z,5.90
2017-12-11T15:34:56.774Z,5.90
2017-12-11T15:37:24.467Z,5.90
2017-12-11T15:39:52.065Z,5.90
2017-12-11T15:42:20.456Z,5.90
2017-12-11T15:44:48.813Z,5.90
2017-12-11T15:47:16.409Z,5.80
2017-12-11T15:49:44.806Z,5.90
2017-12-11T15:52:12.416Z,5.80
2017-12-11T15:54:40.054Z,5.90
2017-12-11T15:57:07.645Z,5.90
2017-12-11T15:59:35.240Z,5.80
2017-12-11T16:02:02.898Z,5.90
2017-12-11T16:04:30.507Z,5.90
2017-12-11T16:06:58.133Z,5.90
2017-12-11T16:09:25.718Z,5.90
2017-12-11T16:11:53.320Z,5.90
2017-12-11T16:14:21.715Z,5.70
2017-12-11T16:16:50.095Z,5.70
2017-12-11T16:19:17.721Z,5.70
2017-12-11T16:21:45.326Z,5.70
2017-12-11T16:24:12.925Z,5.60
2017-12-11T16:26:40.559Z,5.60
2017-12-11T16:29:08.153Z,5.50
2017-12-11T16:31:35.774Z,5.50
2017-12-11T16:34:03.368Z,5.60
2017-12-11T16:36:30.954Z,5.50
2017-12-11T16:38:58.575Z,5.60
2017-12-11T16:41:26.182Z,5.60
2017-12-11T16:43:54.572Z,5.60
2017-12-11T16:46:22.935Z,5.60
2017-12-11T16:48:50.556Z,5.50
2017-12-11T16:51:18.201Z,5.50
2017-12-11T16:53:45.805Z,5.50
2017-12-11T16:56:13.425Z,5.50
2017-12-11T16:58:41.019Z,5.50
2017-12-11T17:01:08.888Z,5.50
2017-12-11T17:03:36.855Z,5.60
2017-12-11T17:06:04.715Z,5.60
2017-12-11T17:08:32.591Z,5.60
2017-12-11T17:11:01.982Z,5.60
2017-12-11T17:13:29.856Z,5.60
2017-12-11T17:15:57.720Z,5.60
2017-12-11T17:18:25.591Z,5.60
2017-12-11T17:20:53.457Z,5.60
2017-12-11T17:23:21.223Z,5.60
2017-12-11T17:25:49.492Z,5.60
2017-12-11T17:28:17.354Z,5.50
2017-12-11T17:30:45.232Z,5.50
2017-12-11T17:33:13.095Z,5.50
2017-12-11T17:35:41.068Z,5.60
2017-12-11T17:38:08.931Z,5.60
2017-12-11T17:40:36.800Z,5.60
2017-12-11T17:43:04.606Z,5.70
2017-12-11T17:45:33.149Z,5.70
2017-12-11T17:48:00.901Z,5.60
2017-12-11T17:50:28.874Z,5.70
2017-12-11T17:52:56.747Z,5.70
2017-12-11T17:55:24.618Z,5.70
2017-12-11T17:57:52.452Z,5.70
2017-12-11T18:00:20.459Z,5.70
2017-12-11T18:02:48.279Z,5.80
2017-12-11T18:05:16.127Z,5.80
2017-12-11T18:07:43.911Z,5.80
2017-12-11T18:10:11.815Z,5.80
2017-12-11T18:12:39.778Z,5.80
2017-12-11T18:15:07.648Z,5.90
2017-12-11T18:17:35.518Z,5.90
2017-12-11T18:20:03.376Z,5.90
2017-12-11T18:22:31.248Z,5.90
2017-12-11T18:24:59.131Z,5.90
2017-12-11T18:27:27.765Z,6.00
2017-12-11T18:29:55.671Z,5.90
2017-12-11T18:32:23.433Z,5.90
2017-12-11T18:34:51.403Z,6.00
2017-12-11T18:37:19.267Z,6.00
2017-12-11T18:39:47.033Z,6.00
2017-12-11T18:42:15.006Z,6.00
2017-12-11T18:44:42.599Z,6.10
2017-12-11T18:47:10.957Z,6.10
2017-12-11T18:49:38.589Z,6.00
2017-12-11T18:52:06.181Z,6.10
2017-12-11T18:54:33.780Z,6.10
2017-12-11T18:57:01.405Z,6.10
2017-12-11T18:59:29.780Z,6.20
2017-12-11T19:01:57.373Z,6.10
2017-12-11T19:04:25.008Z,6.20
2017-12-11T19:06:52.629Z,6.20
2017-12-11T19:09:20.225Z,6.20
2017-12-11T19:11:47.847Z,6.30
2017-12-11T19:14:15.512Z,6.30
2017-12-11T19:16:43.399Z,6.30
2017-12-11T19:19:11.364Z,6.30
2017-12-11T19:21:39.326Z,6.30
2017-12-11T19:24:07.199Z,6.30
2017-12-11T19:26:35.070Z,6.20
2017-12-11T19:29:02.931Z,6.20
2017-12-11T19:31:30.801Z,6.10
2017-12-11T19:33:59.668Z,6.10
2017-12-11T19:36:29.366Z,6.10
2017-12-11T19:38:59.583Z,6.10
2017-12-11T19:41:29.009Z,6.10
2017-12-11T19:43:58.105Z,6.10
2017-12-11T19:46:27.675Z,6.10
2017-12-11T19:48:56.968Z,6.00
2017-12-11T19:51:26.679Z,6.10
2017-12-11T19:53:54.797Z,6.10
2017-12-11T19:56:24.689Z,6.10
2017-12-11T19:58:53.647Z,6.00
2017-12-11T20:01:22.793Z,6.10
2017-12-11T20:03:51.077Z,6.10
2017-12-11T20:06:19.254Z,6.10
2017-12-11T20:08:48.976Z,6.20
2017-12-11T20:11:17.740Z,6.20
2017-12-11T20:13:45.688Z,6.10
2017-12-11T20:16:13.602Z,6.20
2017-12-11T20:18:42.232Z,6.20
2017-12-11T20:21:10.749Z,6.20
2017-12-11T20:23:39.034Z,6.30
2017-12-11T20:26:09.152Z,6.20
2017-12-11T20:28:38.478Z,6.20
2017-12-11T20:31:08.348Z,6.20
2017-12-11T20:33:38.933Z,6.20
2017-12-11T20:36:08.279Z,6.20
2017-12-11T20:38:37.147Z,6.30
2017-12-11T20:41:06.169Z,6.30
2017-12-11T20:43:35.460Z,6.30
2017-12-11T20:46:04.876Z,6.30
2017-12-11T20:48:35.712Z,6.30
2017-12-11T20:51:05.077Z,6.30
2017-12-11T20:53:34.426Z,6.30
2017-12-11T20:56:04.637Z,6.30
2017-12-11T20:58:33.552Z,6.30
2017-12-11T21:01:02.226Z,6.40
2017-12-11T21:03:32.449Z,6.40
2017-12-11T21:06:00.042Z,6.40
2017-12-11T21:08:28.400Z,6.40
2017-12-11T21:10:56.050Z,6.40
2017-12-11T21:13:23.645Z,6.40
2017-12-11T21:15:52.011Z,6.50
2017-12-11T21:18:21.163Z,6.40
2017-12-11T21:20:48.838Z,6.50
2017-12-11T21:23:16.437Z,6.50
2017-12-11T21:25:44.865Z,6.50
2017-12-11T21:28:12.468Z,6.40
2017-12-11T21:30:40.074Z,6.40
2017-12-11T21:33:07.700Z,6.50
2017-12-11T21:35:36.070Z,6.50
2017-12-11T21:38:04.321Z,6.40
2017-12-11T21:40:31.953Z,6.50
2017-12-11T21:42:59.557Z,6.50
2017-12-11T21:45:27.153Z,6.50
2017-12-11T21:47:55.548Z,6.50
2017-12-11T21:50:23.146Z,6.40
2017-12-11T21:52:50.741Z,6.50
2017-12-11T21:55:19.145Z,6.60
2017-12-11T21:57:46.753Z,6.50
2017-12-11T22:00:14.359Z,6.60
2017-12-11T22:02:41.995Z,6.60
2017-12-11T22:05:10.356Z,6.60
2017-12-11T22:07:38.837Z,6.70
2017-12-11T22:10:09.289Z,6.60
2017-12-11T22:12:37.744Z,6.60
2017-12-11T22:15:05.415Z,6.70
2017-12-11T22:17:33.055Z,6.70
2017-12-11T22:20:00.657Z,6.70
2017-12-11T22:22:29.041Z,6.70
2017-12-11T22:24:58.289Z,6.70
2017-12-11T22:27:25.914Z,6.70
2017-12-11T22:29:53.513Z,6.70
2017-12-11T22:32:21.147Z,6.80
2017-12-11T22:34:48.741Z,6.80
2017-12-11T22:37:16.350Z,6.80
2017-12-11T22:39:43.999Z,6.80
2017-12-11T22:42:12.356Z,6.70
2017-12-11T22:44:41.509Z,6.60
2017-12-11T22:47:09.133Z,6.60
2017-12-11T22:49:37.502Z,6.60
2017-12-11T22:52:05.097Z,6.60
2017-12-11T22:54:32.739Z,6.60
2017-12-11T22:57:01.114Z,6.60
2017-12-11T22:59:29.473Z,6.60
2017-12-11T23:01:57.117Z,6.50
2017-12-11T23:04:24.738Z,6.60
2017-12-11T23:06:52.442Z,6.60
2017-12-11T23:09:22.892Z,6.70
2017-12-11T23:11:50.670Z,6.70
2017-12-11T23:14:19.029Z,6.70
2017-12-11T23:16:46.670Z,6.60
2017-12-11T23:19:14.268Z,6.70
2017-12-11T23:21:42.625Z,6.70
2017-12-11T23:24:10.254Z,6.70
2017-12-11T23:26:37.849Z,6.70
2017-12-11T23:29:05.445Z,6.70
2017-12-11T23:31:33.138Z,6.70
2017-12-11T23:34:00.729Z,6.70
2017-12-11T23:36:28.331Z,6.70
2017-12-11T23:38:55.952Z,6.70
2017-12-11T23:41:23.544Z,6.70
2017-12-11T23:43:51.908Z,6.80
2017-12-11T23:46:20.304Z,6.70
2017-12-11T23:48:47.901Z,6.70
2017-12-11T23:51:15.496Z,6.70
2017-12-11T23:53:43.169Z,6.80
2017-12-11T23:56:11.537Z,6.80
2017-12-11T23:58:39.140Z,6.70
